sensor_id;sensor_type;location;lat;lon;timestamp;pressure;altitude;pressure_sealevel;temperature;humidity
61506;BME280;47366;51.916;4.574;2023-08-21T00:00:01;102399.09;;;19.18;73.80
61506;BME280;47366;51.916;4.574;2023-08-21T00:02:26;102410.88;;;19.20;73.19
61506;BME280;47366;51.916;4.574;2023-08-21T00:04:53;102405.72;;;19.16;73.44
61506;BME280;47366;51.916;4.574;2023-08-21T00:07:19;102405.50;;;19.19;73.27
61506;BME280;47366;51.916;4.574;2023-08-21T00:09:44;102407.25;;;19.20;74.01
61506;BME280;47366;51.916;4.574;2023-08-21T00:12:10;102402.97;;;19.16;74.62
61506;BME280;47366;51.916;4.574;2023-08-21T00:14:35;102408.25;;;19.19;74.22
61506;BME280;47366;51.916;4.574;2023-08-21T00:17:01;102408.69;;;19.13;74.10
61506;BME280;47366;51.916;4.574;2023-08-21T00:19:28;102404.28;;;19.10;74.35
61506;BME280;47366;51.916;4.574;2023-08-21T00:21:53;102413.41;;;19.10;74.27
61506;BME280;47366;51.916;4.574;2023-08-21T00:24:19;102402.88;;;19.04;74.50
61506;BME280;47366;51.916;4.574;2023-08-21T00:26:44;102420.09;;;19.06;74.60
61506;BME280;47366;51.916;4.574;2023-08-21T00:29:09;102408.47;;;19.03;74.31
61506;BME280;47366;51.916;4.574;2023-08-21T00:31:35;102410.44;;;19.01;74.23
61506;BME280;47366;51.916;4.574;2023-08-21T00:34:00;102413.19;;;19.01;74.43
61506;BME280;47366;51.916;4.574;2023-08-21T00:36:25;102411.47;;;19.00;74.30
61506;BME280;47366;51.916;4.574;2023-08-21T00:38:51;102406.06;;;18.98;74.88
61506;BME280;47366;51.916;4.574;2023-08-21T00:41:16;102401.78;;;18.94;74.70
61506;BME280;47366;51.916;4.574;2023-08-21T00:43:42;102391.91;;;18.92;74.60
61506;BME280;47366;51.916;4.574;2023-08-21T00:46:07;102397.72;;;18.87;74.53
61506;BME280;47366;51.916;4.574;2023-08-21T00:48:33;102392.34;;;18.85;75.25
61506;BME280;47366;51.916;4.574;2023-08-21T00:50:58;102391.25;;;18.88;75.28
61506;BME280;47366;51.916;4.574;2023-08-21T00:53:24;102393.22;;;18.86;75.83
61506;BME280;47366;51.916;4.574;2023-08-21T00:55:50;102395.97;;;18.86;75.72
61506;BME280;47366;51.916;4.574;2023-08-21T00:58:16;102398.72;;;18.86;75.60
61506;BME280;47366;51.916;4.574;2023-08-21T01:00:44;102391.69;;;18.82;75.88
61506;BME280;47366;51.916;4.574;2023-08-21T01:03:10;102388.06;;;18.81;75.80
61506;BME280;47366;51.916;4.574;2023-08-21T01:05:36;102390.03;;;18.79;76.41
61506;BME280;47366;51.916;4.574;2023-08-21T01:08:03;102388.94;;;18.82;75.82
61506;BME280;47366;51.916;4.574;2023-08-21T01:10:42;102396.06;;;18.84;76.06
61506;BME280;47366;51.916;4.574;2023-08-21T01:15:57;102402.19;;;18.75;76.62
61506;BME280;47366;51.916;4.574;2023-08-21T01:18:24;102395.63;;;18.78;76.61
61506;BME280;47366;51.916;4.574;2023-08-21T01:20:52;102392.44;;;18.71;76.01
61506;BME280;47366;51.916;4.574;2023-08-21T01:23:37;102403.88;;;18.78;77.48
61506;BME280;47366;51.916;4.574;2023-08-21T01:26:03;102402.50;;;18.71;76.58
61506;BME280;47366;51.916;4.574;2023-08-21T01:28:30;102406.91;;;18.73;78.17
61506;BME280;47366;51.916;4.574;2023-08-21T01:33:42;102411.66;;;18.71;78.02
61506;BME280;47366;51.916;4.574;2023-08-21T01:36:09;102404.38;;;18.70;77.40
61506;BME280;47366;51.916;4.574;2023-08-21T01:38:36;102409.00;;;18.70;77.09
61506;BME280;47366;51.916;4.574;2023-08-21T01:41:02;102409.97;;;18.68;78.40
61506;BME280;47366;51.916;4.574;2023-08-21T01:43:28;102412.94;;;18.65;78.20
61506;BME280;47366;51.916;4.574;2023-08-21T01:45:54;102406.69;;;18.63;78.20
61506;BME280;47366;51.916;4.574;2023-08-21T01:48:19;102409.56;;;18.62;77.87
61506;BME280;47366;51.916;4.574;2023-08-21T01:50:45;102421.09;;;18.67;77.93
61506;BME280;47366;51.916;4.574;2023-08-21T01:53:10;102413.25;;;18.61;78.88
61506;BME280;47366;51.916;4.574;2023-08-21T01:55:35;102422.19;;;18.64;78.59
61506;BME280;47366;51.916;4.574;2023-08-21T01:58:01;102416.78;;;18.63;78.23
61506;BME280;47366;51.916;4.574;2023-08-21T02:00:26;102414.28;;;18.60;79.33
61506;BME280;47366;51.916;4.574;2023-08-21T02:02:51;102409.41;;;18.63;78.53
61506;BME280;47366;51.916;4.574;2023-08-21T02:05:17;102409.75;;;18.59;78.03
61506;BME280;47366;51.916;4.574;2023-08-21T02:07:42;102407.00;;;18.59;78.36
61506;BME280;47366;51.916;4.574;2023-08-21T02:10:08;102415.13;;;18.60;78.51
61506;BME280;47366;51.916;4.574;2023-08-21T02:12:33;102410.75;;;18.58;78.72
61506;BME280;47366;51.916;4.574;2023-08-21T02:14:58;102410.06;;;18.54;78.87
61506;BME280;47366;51.916;4.574;2023-08-21T02:17:27;102410.06;;;18.54;78.76
61506;BME280;47366;51.916;4.574;2023-08-21T02:19:52;102409.75;;;18.46;79.07
61506;BME280;47366;51.916;4.574;2023-08-21T02:22:17;102409.53;;;18.49;79.36
61506;BME280;47366;51.916;4.574;2023-08-21T02:24:43;102413.25;;;18.48;78.80
61506;BME280;47366;51.916;4.574;2023-08-21T02:27:08;102408.00;;;18.45;79.32
61506;BME280;47366;51.916;4.574;2023-08-21T02:29:34;102409.09;;;18.42;79.02
61506;BME280;47366;51.916;4.574;2023-08-21T02:31:59;102414.34;;;18.45;79.14
61506;BME280;47366;51.916;4.574;2023-08-21T02:34:24;102411.72;;;18.44;79.54
61506;BME280;47366;51.916;4.574;2023-08-21T02:36:50;102405.66;;;18.39;79.30
61506;BME280;47366;51.916;4.574;2023-08-21T02:39:15;102408.50;;;18.37;80.18
61506;BME280;47366;51.916;4.574;2023-08-21T02:41:40;102409.72;;;18.33;80.11
61506;BME280;47366;51.916;4.574;2023-08-21T02:44:06;102409.81;;;18.32;80.33
61506;BME280;47366;51.916;4.574;2023-08-21T02:46:31;102403.47;;;18.31;79.76
61506;BME280;47366;51.916;4.574;2023-08-21T02:48:58;102397.44;;;18.26;79.83
61506;BME280;47366;51.916;4.574;2023-08-21T02:51:24;102405.97;;;18.21;80.12
61506;BME280;47366;51.916;4.574;2023-08-21T02:53:49;102401.44;;;18.20;80.86
61506;BME280;47366;51.916;4.574;2023-08-21T02:56:14;102396.97;;;18.19;79.89
61506;BME280;47366;51.916;4.574;2023-08-21T02:58:40;102393.53;;;18.16;80.13
61506;BME280;47366;51.916;4.574;2023-08-21T03:01:05;102404.31;;;18.19;79.87
61506;BME280;47366;51.916;4.574;2023-08-21T03:03:30;102404.72;;;18.13;79.98
61506;BME280;47366;51.916;4.574;2023-08-21T03:05:57;102401.34;;;18.09;79.49
61506;BME280;47366;51.916;4.574;2023-08-21T03:08:23;102411.31;;;18.10;80.28
61506;BME280;47366;51.916;4.574;2023-08-21T03:10:48;102401.53;;;18.06;80.90
61506;BME280;47366;51.916;4.574;2023-08-21T03:13:13;102405.13;;;18.07;80.44
61506;BME280;47366;51.916;4.574;2023-08-21T03:15:39;102410.75;;;18.05;80.17
61506;BME280;47366;51.916;4.574;2023-08-21T03:18:04;102387.47;;;17.98;80.35
61506;BME280;47366;51.916;4.574;2023-08-21T03:20:29;102394.50;;;18.02;80.65
61506;BME280;47366;51.916;4.574;2023-08-21T03:22:55;102387.56;;;17.96;80.62
61506;BME280;47366;51.916;4.574;2023-08-21T03:25:20;102408.00;;;18.05;80.46
61506;BME280;47366;51.916;4.574;2023-08-21T03:27:46;102391.00;;;18.00;79.98
61506;BME280;47366;51.916;4.574;2023-08-21T03:30:14;102403.50;;;18.04;80.69
61506;BME280;47366;51.916;4.574;2023-08-21T03:32:40;102399.22;;;18.00;80.66
61506;BME280;47366;51.916;4.574;2023-08-21T03:35:06;102408.31;;;18.00;80.68
61506;BME280;47366;51.916;4.574;2023-08-21T03:37:31;102387.69;;;17.95;80.94
61506;BME280;47366;51.916;4.574;2023-08-21T03:39:57;102390.44;;;17.95;80.32
61506;BME280;47366;51.916;4.574;2023-08-21T03:42:22;102406.66;;;17.98;80.56
61506;BME280;47366;51.916;4.574;2023-08-21T03:44:47;102406.75;;;17.96;81.14
61506;BME280;47366;51.916;4.574;2023-08-21T03:47:18;102411.28;;;17.97;80.27
61506;BME280;47366;51.916;4.574;2023-08-21T03:49:43;102404.88;;;17.97;80.53
61506;BME280;47366;51.916;4.574;2023-08-21T03:52:08;102404.22;;;17.93;80.41
61506;BME280;47366;51.916;4.574;2023-08-21T03:54:34;102390.75;;;17.90;80.36
61506;BME280;47366;51.916;4.574;2023-08-21T03:56:59;102400.72;;;17.91;80.74
61506;BME280;47366;51.916;4.574;2023-08-21T03:59:25;102404.13;;;17.95;80.63
61506;BME280;47366;51.916;4.574;2023-08-21T04:01:53;102399.94;;;17.89;81.16
61506;BME280;47366;51.916;4.574;2023-08-21T04:04:18;102410.50;;;17.95;80.83
61506;BME280;47366;51.916;4.574;2023-08-21T04:06:43;102397.88;;;17.93;80.41
61506;BME280;47366;51.916;4.574;2023-08-21T04:09:09;102400.41;;;17.96;80.59
61506;BME280;47366;51.916;4.574;2023-08-21T04:11:35;102393.34;;;17.92;81.02
61506;BME280;47366;51.916;4.574;2023-08-21T04:14:01;102402.38;;;17.94;80.95
61506;BME280;47366;51.916;4.574;2023-08-21T04:16:27;102403.38;;;17.93;81.04
61506;BME280;47366;51.916;4.574;2023-08-21T04:18:53;102403.06;;;17.97;81.06
61506;BME280;47366;51.916;4.574;2023-08-21T04:21:18;102407.53;;;17.98;81.29
61506;BME280;47366;51.916;4.574;2023-08-21T04:23:44;102391.63;;;17.91;81.25
61506;BME280;47366;51.916;4.574;2023-08-21T04:26:13;102393.34;;;17.92;81.24
61506;BME280;47366;51.916;4.574;2023-08-21T04:28:38;102400.63;;;17.93;81.35
61506;BME280;47366;51.916;4.574;2023-08-21T04:31:05;102393.34;;;17.92;81.46
61506;BME280;47366;51.916;4.574;2023-08-21T04:33:30;102400.63;;;17.93;80.62
61506;BME280;47366;51.916;4.574;2023-08-21T04:35:56;102404.22;;;17.93;80.71
61506;BME280;47366;51.916;4.574;2023-08-21T04:38:21;102402.47;;;17.92;81.01
61506;BME280;47366;51.916;4.574;2023-08-21T04:40:46;102408.94;;;17.91;81.20
61506;BME280;47366;51.916;4.574;2023-08-21T04:43:12;102417.84;;;17.95;81.92
61506;BME280;47366;51.916;4.574;2023-08-21T04:45:37;102416.84;;;17.96;81.29
61506;BME280;47366;51.916;4.574;2023-08-21T04:48:04;102408.94;;;17.91;80.99
61506;BME280;47366;51.916;4.574;2023-08-21T04:50:30;102419.69;;;17.94;81.51
61506;BME280;47366;51.916;4.574;2023-08-21T04:52:55;102407.75;;;17.95;81.53
61506;BME280;47366;51.916;4.574;2023-08-21T04:55:20;102416.06;;;17.94;81.41
61506;BME280;47366;51.916;4.574;2023-08-21T04:57:46;102408.06;;;17.91;81.59
61506;BME280;47366;51.916;4.574;2023-08-21T05:00:11;102421.56;;;17.94;81.35
61506;BME280;47366;51.916;4.574;2023-08-21T05:02:37;102418.91;;;17.92;81.38
61506;BME280;47366;51.916;4.574;2023-08-21T05:05:03;102420.78;;;17.92;81.50
61506;BME280;47366;51.916;4.574;2023-08-21T05:07:28;102419.81;;;17.93;80.91
61506;BME280;47366;51.916;4.574;2023-08-21T05:09:54;102423.53;;;17.92;81.32
61506;BME280;47366;51.916;4.574;2023-08-21T05:12:19;102424.38;;;17.92;81.66
61506;BME280;47366;51.916;4.574;2023-08-21T05:14:44;102415.72;;;17.86;81.56
61506;BME280;47366;51.916;4.574;2023-08-21T05:17:10;102415.72;;;17.86;81.19
61506;BME280;47366;51.916;4.574;2023-08-21T05:19:35;102424.50;;;17.91;81.72
61506;BME280;47366;51.916;4.574;2023-08-21T05:22:00;102424.81;;;17.86;81.11
61506;BME280;47366;51.916;4.574;2023-08-21T05:24:26;102416.81;;;17.83;81.42
61506;BME280;47366;51.916;4.574;2023-08-21T05:26:51;102436.25;;;17.93;81.48
61506;BME280;47366;51.916;4.574;2023-08-21T05:29:16;102433.53;;;17.93;81.44
61506;BME280;47366;51.916;4.574;2023-08-21T05:31:42;102430.00;;;17.91;81.50
61506;BME280;47366;51.916;4.574;2023-08-21T05:34:07;102436.25;;;17.93;81.97
61506;BME280;47366;51.916;4.574;2023-08-21T05:36:33;102434.47;;;17.92;81.46
61506;BME280;47366;51.916;4.574;2023-08-21T05:38:58;102427.03;;;17.94;81.43
61506;BME280;47366;51.916;4.574;2023-08-21T05:41:24;102438.47;;;18.00;81.74
61506;BME280;47366;51.916;4.574;2023-08-21T05:43:49;102421.16;;;18.00;81.42
61506;BME280;47366;51.916;4.574;2023-08-21T05:46:14;102435.44;;;18.05;81.60
61506;BME280;47366;51.916;4.574;2023-08-21T05:48:40;102428.84;;;18.08;81.48
61506;BME280;47366;51.916;4.574;2023-08-21T05:51:05;102433.25;;;18.10;81.49
61506;BME280;47366;51.916;4.574;2023-08-21T05:53:30;102442.03;;;18.15;81.09
61506;BME280;47366;51.916;4.574;2023-08-21T05:55:56;102446.34;;;18.19;81.32
61506;BME280;47366;51.916;4.574;2023-08-21T05:58:21;102441.63;;;18.21;81.27
61506;BME280;47366;51.916;4.574;2023-08-21T06:00:48;102446.13;;;18.22;80.98
61506;BME280;47366;51.916;4.574;2023-08-21T06:03:13;102431.63;;;18.20;80.92
61506;BME280;47366;51.916;4.574;2023-08-21T06:05:39;102444.16;;;18.24;81.08
61506;BME280;47366;51.916;4.574;2023-08-21T06:08:04;102444.72;;;18.30;81.16
61506;BME280;47366;51.916;4.574;2023-08-21T06:10:31;102439.00;;;18.33;80.68
61506;BME280;47366;51.916;4.574;2023-08-21T06:12:57;102442.13;;;18.41;80.63
61506;BME280;47366;51.916;4.574;2023-08-21T06:15:22;102435.22;;;18.48;80.04
61506;BME280;47366;51.916;4.574;2023-08-21T06:17:47;102443.38;;;18.62;80.42
61506;BME280;47366;51.916;4.574;2023-08-21T06:20:13;102443.38;;;18.75;80.06
61506;BME280;47366;51.916;4.574;2023-08-21T06:22:39;102448.16;;;18.86;80.37
61506;BME280;47366;51.916;4.574;2023-08-21T06:25:05;102441.31;;;18.92;80.16
61506;BME280;47366;51.916;4.574;2023-08-21T06:27:30;102427.59;;;19.04;80.32
61506;BME280;47366;51.916;4.574;2023-08-21T06:29:55;102441.31;;;19.17;79.70
61506;BME280;47366;51.916;4.574;2023-08-21T06:32:21;102434.06;;;19.29;79.64
61506;BME280;47366;51.916;4.574;2023-08-21T06:34:47;102442.41;;;19.40;78.73
61506;BME280;47366;51.916;4.574;2023-08-21T06:37:12;102441.47;;;19.52;79.44
61506;BME280;47366;51.916;4.574;2023-08-21T06:39:38;102447.94;;;19.64;78.78
61506;BME280;47366;51.916;4.574;2023-08-21T06:42:04;102449.56;;;19.80;78.80
61506;BME280;47366;51.916;4.574;2023-08-21T06:44:29;102449.50;;;19.92;78.81
61506;BME280;47366;51.916;4.574;2023-08-21T06:46:54;102443.81;;;20.07;78.41
61506;BME280;47366;51.916;4.574;2023-08-21T06:49:20;102445.31;;;20.24;78.03
61506;BME280;47366;51.916;4.574;2023-08-21T06:51:45;102461.38;;;20.41;77.28
61506;BME280;47366;51.916;4.574;2023-08-21T06:54:10;102449.84;;;20.60;77.05
61506;BME280;47366;51.916;4.574;2023-08-21T06:56:36;102458.50;;;20.78;76.01
61506;BME280;47366;51.916;4.574;2023-08-21T06:59:01;102444.66;;;20.91;75.71
61506;BME280;47366;51.916;4.574;2023-08-21T07:01:27;102443.91;;;21.11;75.42
61506;BME280;47366;51.916;4.574;2023-08-21T07:03:53;102449.94;;;21.28;75.44
61506;BME280;47366;51.916;4.574;2023-08-21T07:06:18;102454.97;;;21.45;74.62
61506;BME280;47366;51.916;4.574;2023-08-21T07:08:44;102454.84;;;21.58;74.20
61506;BME280;47366;51.916;4.574;2023-08-21T07:11:09;102445.28;;;21.73;73.81
61506;BME280;47366;51.916;4.574;2023-08-21T07:13:36;102451.91;;;21.93;73.53
61506;BME280;47366;51.916;4.574;2023-08-21T07:16:01;102450.88;;;22.05;73.35
61506;BME280;47366;51.916;4.574;2023-08-21T07:18:29;102444.16;;;22.19;72.95
61506;BME280;47366;51.916;4.574;2023-08-21T07:20:55;102450.16;;;22.36;72.52
61506;BME280;47366;51.916;4.574;2023-08-21T07:23:20;102455.78;;;22.45;71.78
61506;BME280;47366;51.916;4.574;2023-08-21T07:25:46;102447.00;;;22.61;71.96
61506;BME280;47366;51.916;4.574;2023-08-21T07:28:11;102448.22;;;22.68;70.77
61506;BME280;47366;51.916;4.574;2023-08-21T07:30:37;102467.22;;;22.83;70.54
61506;BME280;47366;51.916;4.574;2023-08-21T07:33:04;102468.72;;;22.87;70.51
61506;BME280;47366;51.916;4.574;2023-08-21T07:35:30;102463.72;;;23.02;70.21
61506;BME280;47366;51.916;4.574;2023-08-21T07:37:55;102465.34;;;23.04;70.13
61506;BME280;47366;51.916;4.574;2023-08-21T07:40:20;102454.63;;;23.11;70.04
61506;BME280;47366;51.916;4.574;2023-08-21T07:42:46;102468.22;;;23.24;69.41
61506;BME280;47366;51.916;4.574;2023-08-21T07:45:11;102464.94;;;23.40;69.05
61506;BME280;47366;51.916;4.574;2023-08-21T07:47:37;102468.16;;;23.45;69.04
61506;BME280;47366;51.916;4.574;2023-08-21T07:50:02;102457.72;;;23.48;69.20
61506;BME280;47366;51.916;4.574;2023-08-21T07:52:28;102460.41;;;23.69;68.75
61506;BME280;47366;51.916;4.574;2023-08-21T07:54:53;102467.63;;;23.91;68.21
61506;BME280;47366;51.916;4.574;2023-08-21T07:57:19;102469.81;;;24.07;67.76
61506;BME280;47366;51.916;4.574;2023-08-21T07:59:44;102478.63;;;24.22;67.03
61506;BME280;47366;51.916;4.574;2023-08-21T08:02:10;102476.16;;;24.29;67.26
61506;BME280;47366;51.916;4.574;2023-08-21T08:04:38;102478.75;;;24.40;66.85
61506;BME280;47366;51.916;4.574;2023-08-21T08:07:03;102480.38;;;24.52;66.55
61506;BME280;47366;51.916;4.574;2023-08-21T08:09:28;102479.06;;;24.66;66.21
61506;BME280;47366;51.916;4.574;2023-08-21T08:11:54;102483.59;;;24.77;65.63
61506;BME280;47366;51.916;4.574;2023-08-21T08:14:19;102466.94;;;24.87;65.90
61506;BME280;47366;51.916;4.574;2023-08-21T08:16:44;102470.13;;;25.01;65.61
61506;BME280;47366;51.916;4.574;2023-08-21T08:19:10;102472.72;;;25.13;65.20
61506;BME280;47366;51.916;4.574;2023-08-21T08:21:35;102470.50;;;25.26;64.94
61506;BME280;47366;51.916;4.574;2023-08-21T08:24:01;102475.03;;;25.27;63.91
61506;BME280;47366;51.916;4.574;2023-08-21T08:26:27;102482.00;;;25.31;64.91
61506;BME280;47366;51.916;4.574;2023-08-21T08:28:52;102478.78;;;25.36;63.51
61506;BME280;47366;51.916;4.574;2023-08-21T08:31:18;102483.16;;;25.38;63.09
61506;BME280;47366;51.916;4.574;2023-08-21T08:33:44;102474.09;;;25.46;63.14
61506;BME280;47366;51.916;4.574;2023-08-21T08:36:09;102466.19;;;25.51;62.83
61506;BME280;47366;51.916;4.574;2023-08-21T08:38:35;102471.78;;;25.69;62.74
61506;BME280;47366;51.916;4.574;2023-08-21T08:41:02;102466.34;;;25.77;60.85
61506;BME280;47366;51.916;4.574;2023-08-21T08:43:28;102462.06;;;25.83;61.80
61506;BME280;47366;51.916;4.574;2023-08-21T08:45:56;102466.59;;;25.84;61.94
61506;BME280;47366;51.916;4.574;2023-08-21T08:48:23;102463.00;;;26.01;61.63
61506;BME280;47366;51.916;4.574;2023-08-21T08:50:50;102466.44;;;26.13;61.06
61506;BME280;47366;51.916;4.574;2023-08-21T08:53:16;102456.88;;;25.98;59.20
61506;BME280;47366;51.916;4.574;2023-08-21T08:55:42;102465.19;;;25.98;59.90
61506;BME280;47366;51.916;4.574;2023-08-21T08:58:07;102473.63;;;26.06;60.50
61506;BME280;47366;51.916;4.574;2023-08-21T09:00:32;102470.88;;;26.24;60.75
61506;BME280;47366;51.916;4.574;2023-08-21T09:02:58;102473.41;;;26.35;59.95
61506;BME280;47366;51.916;4.574;2023-08-21T09:05:23;102472.06;;;26.39;59.21
61506;BME280;47366;51.916;4.574;2023-08-21T09:10:33;102480.13;;;26.60;58.78
61506;BME280;47366;51.916;4.574;2023-08-21T09:12:59;102476.84;;;26.65;58.45
61506;BME280;47366;51.916;4.574;2023-08-21T09:15:30;102465.22;;;26.69;56.79
61506;BME280;47366;51.916;4.574;2023-08-21T09:17:55;102460.00;;;26.66;57.61
61506;BME280;47366;51.916;4.574;2023-08-21T09:20:20;102465.16;;;26.61;57.47
61506;BME280;47366;51.916;4.574;2023-08-21T09:23:04;102462.16;;;26.73;56.61
61506;BME280;47366;51.916;4.574;2023-08-21T09:25:39;102463.28;;;26.88;54.85
61506;BME280;47366;51.916;4.574;2023-08-21T09:28:06;102460.19;;;26.65;56.60
61506;BME280;47366;51.916;4.574;2023-08-21T09:30:53;102459.09;;;26.48;54.45
61506;BME280;47366;51.916;4.574;2023-08-21T09:33:23;102471.53;;;26.54;56.91
61506;BME280;47366;51.916;4.574;2023-08-21T09:35:51;102449.66;;;26.77;56.87
61506;BME280;47366;51.916;4.574;2023-08-21T09:38:17;102451.56;;;27.02;56.20
61506;BME280;47366;51.916;4.574;2023-08-21T09:40:51;102450.16;;;27.24;55.83
61506;BME280;47366;51.916;4.574;2023-08-21T09:43:17;102454.44;;;27.37;55.09
61506;BME280;47366;51.916;4.574;2023-08-21T09:45:55;102458.88;;;27.56;53.58
61506;BME280;47366;51.916;4.574;2023-08-21T09:48:27;102462.38;;;27.66;53.37
61506;BME280;47366;51.916;4.574;2023-08-21T09:50:53;102457.16;;;27.28;54.67
61506;BME280;47366;51.916;4.574;2023-08-21T09:53:22;102444.63;;;26.98;54.24
61506;BME280;47366;51.916;4.574;2023-08-21T09:55:52;102458.09;;;26.67;55.90
61506;BME280;47366;51.916;4.574;2023-08-21T09:58:19;102448.16;;;26.64;56.12
61506;BME280;47366;51.916;4.574;2023-08-21T10:00:48;102453.00;;;27.06;55.65
61506;BME280;47366;51.916;4.574;2023-08-21T10:03:17;102439.94;;;27.07;54.33
61506;BME280;47366;51.916;4.574;2023-08-21T10:05:46;102456.25;;;27.20;52.43
61506;BME280;47366;51.916;4.574;2023-08-21T10:08:15;102446.44;;;27.42;52.02
61506;BME280;47366;51.916;4.574;2023-08-21T10:10:42;102441.47;;;27.53;53.36
61506;BME280;47366;51.916;4.574;2023-08-21T10:13:08;102449.47;;;27.57;52.24
61506;BME280;47366;51.916;4.574;2023-08-21T10:15:36;102448.63;;;27.64;51.34
61506;BME280;47366;51.916;4.574;2023-08-21T10:21:16;102448.59;;;28.15;50.18
61506;BME280;47366;51.916;4.574;2023-08-21T10:23:46;102455.28;;;28.30;50.32
61506;BME280;47366;51.916;4.574;2023-08-21T10:26:12;102453.41;;;28.47;50.62
61506;BME280;47366;51.916;4.574;2023-08-21T10:28:50;102455.78;;;28.26;50.10
61506;BME280;47366;51.916;4.574;2023-08-21T10:31:26;102442.56;;;28.28;49.88
61506;BME280;47366;51.916;4.574;2023-08-21T10:33:52;102439.44;;;28.39;50.73
61506;BME280;47366;51.916;4.574;2023-08-21T10:39:16;102434.75;;;28.72;49.34
61506;BME280;47366;51.916;4.574;2023-08-21T10:42:00;102440.66;;;28.86;47.09
61506;BME280;47366;51.916;4.574;2023-08-21T10:47:20;102440.97;;;28.99;49.13
61506;BME280;47366;51.916;4.574;2023-08-21T10:49:50;102434.66;;;29.05;49.56
61506;BME280;47366;51.916;4.574;2023-08-21T10:52:27;102435.72;;;29.20;48.71
61506;BME280;47366;51.916;4.574;2023-08-21T10:54:55;102432.09;;;29.04;48.67
61506;BME280;47366;51.916;4.574;2023-08-21T10:57:22;102434.19;;;29.10;49.10
61506;BME280;47366;51.916;4.574;2023-08-21T11:02:16;102434.66;;;29.30;48.27
61506;BME280;47366;51.916;4.574;2023-08-21T11:04:41;102430.75;;;29.39;48.83
61506;BME280;47366;51.916;4.574;2023-08-21T11:07:09;102422.72;;;29.44;47.33
61506;BME280;47366;51.916;4.574;2023-08-21T11:09:36;102433.38;;;29.40;46.31
61506;BME280;47366;51.916;4.574;2023-08-21T11:12:12;102442.34;;;29.28;46.92
61506;BME280;47366;51.916;4.574;2023-08-21T11:14:38;102430.09;;;29.37;47.70
61506;BME280;47366;51.916;4.574;2023-08-21T11:17:05;102438.09;;;29.32;48.10
61506;BME280;47366;51.916;4.574;2023-08-21T11:19:32;102443.28;;;29.51;47.65
61506;BME280;47366;51.916;4.574;2023-08-21T11:21:59;102439.59;;;29.59;47.22
61506;BME280;47366;51.916;4.574;2023-08-21T11:27:11;102434.03;;;29.51;46.40
61506;BME280;47366;51.916;4.574;2023-08-21T11:29:38;102440.59;;;29.74;46.87
61506;BME280;47366;51.916;4.574;2023-08-21T11:34:38;102435.75;;;29.68;45.71
61506;BME280;47366;51.916;4.574;2023-08-21T11:37:05;102432.94;;;29.68;46.00
61506;BME280;47366;51.916;4.574;2023-08-21T11:39:50;102444.06;;;29.76;45.90
61506;BME280;47366;51.916;4.574;2023-08-21T11:42:18;102442.13;;;29.85;46.54
61506;BME280;47366;51.916;4.574;2023-08-21T11:47:14;102435.78;;;29.91;45.16
61506;BME280;47366;51.916;4.574;2023-08-21T11:49:41;102430.38;;;29.90;45.41
61506;BME280;47366;51.916;4.574;2023-08-21T11:52:07;102425.94;;;29.64;42.70
61506;BME280;47366;51.916;4.574;2023-08-21T11:54:34;102414.91;;;29.39;43.51
61506;BME280;47366;51.916;4.574;2023-08-21T11:57:04;102412.75;;;29.50;45.07
61506;BME280;47366;51.916;4.574;2023-08-21T11:59:30;102417.97;;;29.53;44.93
61506;BME280;47366;51.916;4.574;2023-08-21T12:01:55;102426.13;;;29.62;45.06
61506;BME280;47366;51.916;4.574;2023-08-21T12:04:21;102416.13;;;29.76;44.57
61506;BME280;47366;51.916;4.574;2023-08-21T12:06:46;102413.47;;;29.83;44.51
61506;BME280;47366;51.916;4.574;2023-08-21T12:09:12;102411.41;;;29.77;42.12
61506;BME280;47366;51.916;4.574;2023-08-21T12:11:37;102410.06;;;29.73;43.82
61506;BME280;47366;51.916;4.574;2023-08-21T12:14:06;102405.53;;;29.63;43.06
61506;BME280;47366;51.916;4.574;2023-08-21T12:16:32;102417.00;;;29.77;43.99
61506;BME280;47366;51.916;4.574;2023-08-21T12:18:57;102412.41;;;29.84;43.36
61506;BME280;47366;51.916;4.574;2023-08-21T12:21:26;102407.34;;;29.88;43.81
61506;BME280;47366;51.916;4.574;2023-08-21T12:23:51;102409.97;;;29.89;44.18
61506;BME280;47366;51.916;4.574;2023-08-21T12:26:16;102419.13;;;29.98;43.53
61506;BME280;47366;51.916;4.574;2023-08-21T12:28:47;102416.31;;;30.06;44.23
61506;BME280;47366;51.916;4.574;2023-08-21T12:31:12;102409.16;;;30.03;43.00
61506;BME280;47366;51.916;4.574;2023-08-21T12:33:38;102412.31;;;30.00;43.60
61506;BME280;47366;51.916;4.574;2023-08-21T12:36:03;102415.31;;;29.99;43.80
61506;BME280;47366;51.916;4.574;2023-08-21T12:38:29;102410.97;;;29.96;43.81
61506;BME280;47366;51.916;4.574;2023-08-21T12:40:54;102422.06;;;30.04;43.79
61506;BME280;47366;51.916;4.574;2023-08-21T12:43:20;102414.25;;;30.00;43.03
61506;BME280;47366;51.916;4.574;2023-08-21T12:45:46;102418.97;;;29.99;43.49
61506;BME280;47366;51.916;4.574;2023-08-21T12:48:11;102418.97;;;29.99;41.88
61506;BME280;47366;51.916;4.574;2023-08-21T12:50:36;102411.63;;;29.98;41.88
61506;BME280;47366;51.916;4.574;2023-08-21T12:53:02;102412.16;;;29.94;42.87
61506;BME280;47366;51.916;4.574;2023-08-21T12:55:28;102416.19;;;29.99;42.94
61506;BME280;47366;51.916;4.574;2023-08-21T12:57:55;102410.97;;;29.96;42.78
61506;BME280;47366;51.916;4.574;2023-08-21T13:00:21;102409.50;;;30.00;42.94
61506;BME280;47366;51.916;4.574;2023-08-21T13:02:46;102399.88;;;30.03;42.48
61506;BME280;47366;51.916;4.574;2023-08-21T13:05:11;102406.78;;;29.92;41.18
61506;BME280;47366;51.916;4.574;2023-08-21T13:07:37;102394.59;;;29.85;42.65
61506;BME280;47366;51.916;4.574;2023-08-21T13:10:02;102400.88;;;29.87;42.87
61506;BME280;47366;51.916;4.574;2023-08-21T13:12:28;102396.81;;;29.67;41.22